Terminal Aerodrome Forecast
Issued by NWS

Home | Current Version | Previous Version | Text Only | Print | Product List | Glossary On
Versions: 1 2 3 4 5 6 7 8 9 10 11 12 13 14 15 16 17 18 19
000
FTUS45 KSLC 272324
TAFOGD
TAF
KOGD 272324Z 2800/2824 30013G20KT P6SM VCSH SCT040 BKN080
     FM280200 30008KT P6SM SCT060 BKN120
     FM281200 28007KT P6SM VCSH SCT030 BKN060
     FM281400 33008KT 2SM -SHSN BR SCT007 BKN015
     FM282000 32014G24KT P6SM VCSH SCT020 BKN040=

USA.gov is the U.S. government's official web portal to all federal, state and local government web resources and services.